Time;durP1;ratioP1;P1;durP2;ratioP2;P2;SDS_P1;SDS_P2;PMS_P1;PMS_P2;Temp;Humidity;BMP_temperature;BMP_pressure;BME280_temperature;BME280_humidity;BME280_pressure;Samples;Min_cycle;Max_cycle;Signal;HPM_P1;HPM_P2
2021/06/06 00:01:35;;;;;;;79.70;39.63;;;17.20;99.90;;;;;;5110664;28;20093;-81
2021/06/06 00:04:00;;;;;;;74.45;39.17;;;17.20;99.90;;;;;;5093018;28;20044;-81
2021/06/06 00:06:30;;;;;;;80.63;38.97;;;17.30;99.90;;;;;;5093184;28;20100;-81
2021/06/06 00:08:56;;;;;;;73.82;37.83;;;17.30;99.90;;;;;;5089121;28;20043;-80
2021/06/06 00:11:25;;;;;;;72.32;38.55;;;17.30;99.90;;;;;;5109868;28;20042;-81
2021/06/06 00:13:53;;;;;;;76.95;40.08;;;17.40;99.90;;;;;;5110906;28;20580;-81
2021/06/06 00:16:21;;;;;;;79.47;39.00;;;17.40;99.90;;;;;;5111276;28;20036;-80
2021/06/06 00:18:47;;;;;;;74.53;37.83;;;17.30;99.90;;;;;;5109889;28;20092;-80
2021/06/06 00:21:14;;;;;;;81.55;39.70;;;17.20;99.90;;;;;;5109732;28;20035;-80
2021/06/06 00:23:41;;;;;;;76.85;39.25;;;17.30;99.90;;;;;;5110972;28;20497;-81
2021/06/06 00:26:08;;;;;;;79.15;39.63;;;17.20;99.90;;;;;;5116387;28;20051;-80
2021/06/06 00:28:34;;;;;;;79.32;40.05;;;17.20;99.90;;;;;;5117474;28;20035;-80
2021/06/06 00:31:00;;;;;;;81.43;38.42;;;17.20;99.90;;;;;;5111242;28;20023;-80
2021/06/06 00:33:27;;;;;;;72.65;37.28;;;17.20;99.90;;;;;;5109726;28;20073;-80
2021/06/06 00:35:53;;;;;;;75.03;38.22;;;17.30;99.90;;;;;;5112231;28;20031;-80
2021/06/06 00:38:19;;;;;;;83.70;40.28;;;17.30;99.90;;;;;;5117229;28;20546;-80
2021/06/06 00:40:46;;;;;;;74.85;36.83;;;17.30;99.90;;;;;;5109340;28;20063;-80
2021/06/06 00:43:12;;;;;;;72.63;36.60;;;17.30;99.90;;;;;;5108471;28;20522;-80
2021/06/06 00:45:38;;;;;;;80.10;39.00;;;17.40;99.90;;;;;;5110234;28;20039;-81
2021/06/06 00:48:06;;;;;;;75.80;36.75;;;17.40;99.90;;;;;;5092111;28;20036;-80
2021/06/06 00:50:36;;;;;;;74.13;37.20;;;17.40;99.90;;;;;;5108597;28;20515;-80
2021/06/06 00:53:06;;;;;;;76.20;39.05;;;17.40;99.90;;;;;;5109461;28;20051;-81
2021/06/06 00:55:34;;;;;;;65.68;35.58;;;17.40;99.90;;;;;;5092390;28;20042;-80
2021/06/06 00:58:04;;;;;;;75.30;38.13;;;17.40;99.90;;;;;;5089771;28;20032;-80
2021/06/06 01:00:33;;;;;;;79.88;38.83;;;17.40;99.90;;;;;;5092358;28;20028;-80
2021/06/06 01:02:59;;;;;;;72.45;38.42;;;17.40;99.90;;;;;;5091038;28;20503;-81
2021/06/06 01:05:30;;;;;;;81.43;39.92;;;17.30;99.90;;;;;;5109012;28;20057;-80
2021/06/06 01:07:55;;;;;;;82.28;38.78;;;17.30;99.90;;;;;;5090476;28;20040;-80
2021/06/06 01:10:21;;;;;;;81.53;38.72;;;17.30;99.90;;;;;;5107978;28;20368;-80
2021/06/06 01:12:52;;;;;;;74.63;38.22;;;17.30;99.90;;;;;;5110248;28;20175;-80
2021/06/06 01:15:23;;;;;;;78.60;38.90;;;17.30;99.90;;;;;;5109369;28;20415;-80
2021/06/06 01:17:54;;;;;;;69.78;37.10;;;17.30;99.90;;;;;;5107163;28;20044;-80
2021/06/06 01:20:33;;;;;;;72.43;37.35;;;17.20;99.90;;;;;;5109547;28;20028;-81
2021/06/06 01:23:08;;;;;;;78.03;39.13;;;17.20;99.90;;;;;;5113412;28;20546;-81
2021/06/06 01:25:39;;;;;;;78.47;39.65;;;17.10;99.90;;;;;;5118755;28;20418;-80
2021/06/06 01:28:09;;;;;;;72.97;38.22;;;17.00;99.90;;;;;;5119836;28;20042;-80
2021/06/06 01:30:39;;;;;;;72.85;37.42;;;17.10;99.90;;;;;;5118526;28;20043;-80
2021/06/06 01:33:08;;;;;;;76.95;37.45;;;17.00;99.90;;;;;;5118534;28;20130;-80
2021/06/06 01:35:38;;;;;;;67.70;36.63;;;17.10;99.90;;;;;;5119747;28;20044;-80
2021/06/06 01:38:09;;;;;;;65.28;33.42;;;17.10;99.90;;;;;;5116017;28;20491;-80
2021/06/06 01:40:38;;;;;;;63.33;34.08;;;17.10;99.90;;;;;;5116496;28;20039;-80
2021/06/06 01:43:08;;;;;;;59.92;33.28;;;17.20;99.90;;;;;;5116623;28;20040;-80
2021/06/06 01:45:37;;;;;;;61.78;33.72;;;17.10;99.90;;;;;;5115966;28;20483;-80
2021/06/06 01:48:09;;;;;;;61.33;34.03;;;17.10;99.90;;;;;;5111372;28;20075;-80
2021/06/06 01:50:39;;;;;;;59.03;32.67;;;17.10;99.90;;;;;;5116200;28;20327;-80
2021/06/06 01:53:07;;;;;;;56.28;32.80;;;17.10;99.90;;;;;;5116980;28;20055;-80
2021/06/06 01:55:40;;;;;;;58.13;31.52;;;17.10;99.90;;;;;;5117443;28;20550;-80
2021/06/06 01:58:06;;;;;;;52.85;31.83;;;17.10;99.90;;;;;;5099519;28;20074;-80
2021/06/06 02:00:36;;;;;;;51.78;31.58;;;17.00;99.90;;;;;;5099209;28;20035;-80
2021/06/06 02:03:02;;;;;;;;;;;16.90;99.90;;;;;;5117929;28;20036;-80
2021/06/06 02:05:28;;;;;;;52.42;30.17;;;16.90;99.90;;;;;;5117236;28;20397;-80
2021/06/06 02:07:55;;;;;;;55.85;32.33;;;16.90;99.90;;;;;;5098252;28;20039;-80
2021/06/06 02:10:26;;;;;;;53.20;32.17;;;16.90;99.90;;;;;;5115498;28;20067;-80
2021/06/06 02:12:57;;;;;;;59.20;31.30;;;16.80;99.90;;;;;;5115250;28;20044;-80
2021/06/06 02:15:26;;;;;;;51.58;30.45;;;16.80;99.90;;;;;;5116950;28;20082;-80
2021/06/06 02:17:53;;;;;;;56.20;32.13;;;16.80;99.90;;;;;;5115861;28;20143;-80
2021/06/06 02:20:21;;;;;;;54.08;31.73;;;16.80;99.90;;;;;;5115488;28;20031;-80
2021/06/06 02:22:47;;;;;;;55.90;32.38;;;16.70;99.90;;;;;;5115374;28;20043;-80
2021/06/06 02:25:14;;;;;;;56.63;32.30;;;16.70;99.90;;;;;;5116901;28;20051;-80
2021/06/06 02:27:45;;;;;;;59.10;32.38;;;16.70;99.90;;;;;;5116650;28;20434;-80
2021/06/06 02:30:17;;;;;;;56.10;32.92;;;16.60;99.90;;;;;;5116900;28;20036;-80
2021/06/06 02:32:59;;;;;;;58.55;32.35;;;16.50;99.90;;;;;;5115515;28;20047;-80
2021/06/06 02:35:28;;;;;;;56.17;31.50;;;16.50;99.90;;;;;;5115261;28;20036;-80
2021/06/06 02:37:57;;;;;;;58.53;33.25;;;16.50;99.90;;;;;;5115383;28;20039;-80
2021/06/06 02:40:27;;;;;;;55.50;32.23;;;16.30;99.90;;;;;;5115508;28;20070;-80
2021/06/06 02:42:55;;;;;;;59.67;32.63;;;16.40;99.90;;;;;;5114877;28;20636;-81
2021/06/06 02:45:25;;;;;;;59.42;33.28;;;16.40;99.90;;;;;;5115066;28;20043;-80
2021/06/06 02:47:52;;;;;;;;;;;16.40;99.90;;;;;;5115045;28;20051;-79
2021/06/06 02:50:22;;;;;;;49.45;31.52;;;16.40;99.90;;;;;;5114280;28;19942;-80
2021/06/06 02:52:51;;;;;;;53.60;31.65;;;16.30;99.90;;;;;;5115537;28;20554;-80
2021/06/06 02:55:20;;;;;;;57.00;31.17;;;16.30;99.90;;;;;;5115304;28;20491;-80
2021/06/06 02:57:49;;;;;;;60.85;34.58;;;16.40;99.90;;;;;;5114893;28;20486;-80
2021/06/06 03:00:19;;;;;;;55.58;31.48;;;16.30;99.90;;;;;;5097968;28;20031;-80
2021/06/06 03:02:50;;;;;;;49.47;29.73;;;16.30;99.90;;;;;;5098564;28;20040;-80
2021/06/06 03:05:19;;;;;;;57.90;32.55;;;16.30;99.90;;;;;;5097821;28;20043;-80
2021/06/06 03:07:48;;;;;;;54.30;33.22;;;16.40;99.90;;;;;;5097631;28;20134;-80
2021/06/06 03:10:16;;;;;;;51.78;30.33;;;16.40;99.90;;;;;;5114436;28;20510;-80
2021/06/06 03:12:43;;;;;;;51.97;31.08;;;16.40;99.90;;;;;;5116111;28;20105;-81
2021/06/06 03:15:12;;;;;;;57.13;33.17;;;16.30;99.90;;;;;;5114089;28;20062;-80
2021/06/06 03:17:40;;;;;;;58.00;31.73;;;16.30;99.90;;;;;;5115787;28;20036;-80
2021/06/06 03:20:12;;;;;;;54.13;32.58;;;16.40;99.90;;;;;;5115592;28;20040;-80
2021/06/06 03:22:40;;;;;;;57.17;33.35;;;16.20;99.90;;;;;;5097877;28;20040;-80
2021/06/06 03:25:11;;;;;;;57.45;33.60;;;16.20;99.90;;;;;;5115759;28;20058;-80
2021/06/06 03:27:39;;;;;;;60.50;34.75;;;16.20;99.90;;;;;;5097548;28;20498;-80
2021/06/06 03:30:12;;;;;;;61.78;34.83;;;16.30;99.90;;;;;;5114009;28;20035;-80
2021/06/06 03:32:40;;;;;;;60.25;34.75;;;16.30;99.90;;;;;;5115472;28;20061;-79
2021/06/06 03:35:09;;;;;;;62.22;35.92;;;16.30;99.90;;;;;;5115265;28;20506;-80
2021/06/06 03:37:35;;;;;;;70.47;38.45;;;16.20;99.90;;;;;;5114152;28;20047;-79
2021/06/06 03:40:03;;;;;;;64.60;37.17;;;16.20;99.90;;;;;;5113975;28;20043;-80
2021/06/06 03:42:30;;;;;;;66.07;36.75;;;16.20;99.90;;;;;;5114113;28;20031;-80
2021/06/06 03:44:56;;;;;;;70.13;37.63;;;16.20;99.90;;;;;;5115249;28;20031;-80
2021/06/06 03:47:22;;;;;;;68.55;36.88;;;16.20;99.90;;;;;;5115068;28;20532;-80
2021/06/06 03:49:48;;;;;;;68.82;36.33;;;16.20;99.90;;;;;;5096989;28;20035;-80
2021/06/06 03:52:15;;;;;;;68.22;37.58;;;16.20;99.90;;;;;;5113752;28;20076;-80
2021/06/06 03:54:41;;;;;;;67.72;36.75;;;16.10;99.90;;;;;;5113515;28;20071;-80
2021/06/06 03:57:07;;;;;;;74.28;38.55;;;16.10;99.90;;;;;;5114323;28;20067;-80
2021/06/06 03:59:33;;;;;;;73.68;39.22;;;16.00;99.90;;;;;;5114767;28;20042;-80
2021/06/06 04:01:59;;;;;;;75.53;39.25;;;16.10;99.90;;;;;;5113185;28;20038;-80
2021/06/06 04:04:24;;;;;;;73.40;39.50;;;16.10;99.90;;;;;;5114988;28;20047;-80
2021/06/06 04:06:50;;;;;;;75.53;40.85;;;16.10;99.90;;;;;;5115000;28;20031;-80
2021/06/06 04:09:17;;;;;;;71.20;38.95;;;16.00;99.90;;;;;;5113844;28;20126;-80
2021/06/06 04:11:43;;;;;;;72.97;39.13;;;16.00;99.90;;;;;;5113617;28;20032;-80
2021/06/06 04:14:09;;;;;;;74.70;38.15;;;15.90;99.90;;;;;;5113180;28;20092;-80
2021/06/06 04:16:36;;;;;;;77.22;41.08;;;15.80;99.90;;;;;;5114820;28;20032;-80
2021/06/06 04:19:03;;;;;;;75.80;39.50;;;15.70;99.90;;;;;;5114834;28;20096;-80
2021/06/06 04:21:30;;;;;;;78.50;40.55;;;15.80;99.90;;;;;;5096517;28;20118;-80
2021/06/06 04:23:56;;;;;;;76.25;40.45;;;15.90;99.90;;;;;;5113433;28;20043;-80
2021/06/06 04:26:24;;;;;;;77.97;41.75;;;15.80;99.90;;;;;;5113150;28;20051;-80
2021/06/06 04:28:49;;;;;;;73.88;40.15;;;17.50;99.90;;;;;;5113358;28;20044;-80
2021/06/06 04:31:16;;;;;;;67.82;38.38;;;15.70;99.90;;;;;;5113419;28;20035;-80
2021/06/06 04:33:42;;;;;;;66.53;38.40;;;15.70;99.90;;;;;;5114642;28;20035;-80
2021/06/06 04:36:08;;;;;;;68.15;37.78;;;15.70;99.90;;;;;;5114519;28;20122;-80
2021/06/06 04:38:34;;;;;;;69.72;37.33;;;15.90;99.90;;;;;;5113426;28;20065;-80
2021/06/06 04:41:03;;;;;;;65.75;36.53;;;15.60;99.90;;;;;;5113329;28;20562;-80
2021/06/06 04:43:30;;;;;;;66.47;36.78;;;15.50;99.90;;;;;;5114496;28;20056;-80
2021/06/06 04:45:56;;;;;;;64.32;36.33;;;15.50;99.90;;;;;;5113155;28;20044;-80
2021/06/06 04:48:27;;;;;;;67.82;37.05;;;15.50;99.90;;;;;;5114342;28;20406;-80
2021/06/06 04:50:53;;;;;;;73.45;40.55;;;15.60;99.90;;;;;;5113348;28;20510;-80
2021/06/06 04:53:19;;;;;;;74.93;37.55;;;15.60;99.90;;;;;;5114115;28;20050;-79
2021/06/06 04:55:46;;;;;;;66.95;35.63;;;15.60;99.90;;;;;;5112558;28;20495;-80
2021/06/06 04:58:15;;;;;;;60.83;34.47;;;15.60;99.90;;;;;;5112897;28;20043;-80
2021/06/06 05:00:43;;;;;;;62.10;33.50;;;15.70;99.90;;;;;;5114318;28;20122;-80
2021/06/06 05:03:09;;;;;;;58.38;33.75;;;15.80;99.90;;;;;;5112808;28;20044;-80
2021/06/06 05:05:35;;;;;;;63.97;33.90;;;15.80;99.90;;;;;;5112935;28;20071;-80
2021/06/06 05:08:03;;;;;;;50.22;30.20;;;15.80;99.90;;;;;;5113001;28;20066;-80
2021/06/06 05:10:32;;;;;;;50.33;28.58;;;15.80;99.90;;;;;;5114061;28;20039;-80
2021/06/06 05:12:57;;;;;;;51.25;29.17;;;15.90;99.90;;;;;;5115351;28;20510;-80
2021/06/06 05:15:24;;;;;;;46.50;27.33;;;15.80;99.90;;;;;;5117861;28;20069;-80
2021/06/06 05:17:52;;;;;;;44.17;25.33;;;15.90;99.90;;;;;;5116102;28;20048;-81
2021/06/06 05:20:21;;;;;;;43.50;24.77;;;15.70;99.90;;;;;;5112884;28;20039;-80
2021/06/06 05:22:46;;;;;;;34.50;22.20;;;15.70;99.90;;;;;;5112734;28;20047;-80
2021/06/06 05:25:13;;;;;;;38.45;23.10;;;15.80;99.90;;;;;;5093902;28;20149;-80
2021/06/06 05:27:39;;;;;;;36.47;22.60;;;17.00;99.90;;;;;;5076310;28;20143;-80
2021/06/06 05:30:09;;;;;;;33.40;20.70;;;15.90;99.90;;;;;;5094394;28;20126;-80
2021/06/06 05:32:35;;;;;;;35.17;22.15;;;16.00;99.90;;;;;;5112861;28;20092;-80
2021/06/06 05:35:02;;;;;;;36.33;21.50;;;16.10;99.90;;;;;;5095602;28;20043;-80
2021/06/06 05:37:28;;;;;;;33.03;20.75;;;16.20;99.90;;;;;;5095663;28;20047;-81
2021/06/06 05:39:54;;;;;;;30.52;19.95;;;16.30;99.90;;;;;;5114174;28;20043;-80
2021/06/06 05:42:20;;;;;;;30.15;19.35;;;16.40;99.90;;;;;;5095193;28;20046;-80
2021/06/06 05:44:45;;;;;;;31.92;19.52;;;16.50;99.90;;;;;;5113811;28;20059;-80
2021/06/06 05:47:11;;;;;;;28.20;18.00;;;16.50;99.90;;;;;;5113668;28;20487;-80
2021/06/06 05:49:37;;;;;;;23.17;15.70;;;16.70;99.90;;;;;;5095512;28;20054;-81
2021/06/06 05:52:05;;;;;;;24.20;15.98;;;16.80;99.90;;;;;;5094817;28;20043;-81
2021/06/06 05:54:30;;;;;;;26.25;15.98;;;16.90;99.90;;;;;;5113153;28;20039;-80
2021/06/06 05:56:56;;;;;;;24.60;15.50;;;16.90;99.90;;;;;;5095462;28;20051;-80
2021/06/06 05:59:22;;;;;;;19.98;13.98;;;17.00;99.90;;;;;;5094831;28;20039;-80
2021/06/06 06:01:47;;;;;;;20.63;14.55;;;17.10;99.90;;;;;;5094823;28;20143;-81
2021/06/06 06:04:13;;;;;;;21.67;14.18;;;17.10;99.90;;;;;;5091839;28;20046;-80
2021/06/06 06:06:39;;;;;;;23.05;13.88;;;17.20;99.90;;;;;;5093005;28;20043;-81
2021/06/06 06:09:06;;;;;;;21.00;13.75;;;17.20;99.90;;;;;;5094745;28;20490;-81
2021/06/06 06:11:32;;;;;;;20.80;13.93;;;17.10;99.90;;;;;;5113146;28;20043;-80
2021/06/06 06:13:58;;;;;;;18.77;12.68;;;16.90;99.90;;;;;;5113457;28;20122;-81
2021/06/06 06:16:26;;;;;;;19.83;13.00;;;17.00;99.90;;;;;;5095082;28;20039;-81
2021/06/06 06:18:52;;;;;;;19.13;13.15;;;16.80;99.90;;;;;;5094600;28;20134;-80
2021/06/06 06:21:19;;;;;;;19.05;11.55;;;16.80;99.90;;;;;;5113232;28;20155;-81
2021/06/06 06:23:45;;;;;;;19.83;12.93;;;16.80;99.90;;;;;;5094766;28;20047;-80
2021/06/06 06:26:12;;;;;;;17.88;11.35;;;16.70;99.90;;;;;;5095121;28;20043;-80
2021/06/06 06:28:38;;;;;;;18.48;11.57;;;16.50;99.90;;;;;;5094573;28;20138;-80
2021/06/06 06:31:04;;;;;;;14.65;11.10;;;16.60;99.90;;;;;;5094071;28;20047;-81
2021/06/06 06:33:30;;;;;;;15.27;10.85;;;16.70;99.90;;;;;;5094907;28;20096;-81
2021/06/06 06:35:56;;;;;;;16.92;11.18;;;16.70;99.90;;;;;;5112931;28;20550;-80
2021/06/06 06:38:24;;;;;;;18.13;11.00;;;16.80;99.90;;;;;;5094543;28;20035;-81
2021/06/06 06:40:50;;;;;;;16.13;11.35;;;16.80;99.90;;;;;;5092929;28;20032;-80
2021/06/06 06:43:17;;;;;;;19.52;11.45;;;16.80;99.90;;;;;;5093606;28;20124;-80
2021/06/06 06:45:43;;;;;;;18.10;11.35;;;16.80;99.90;;;;;;5085718;28;20489;-80
2021/06/06 06:48:12;;;;;;;18.23;12.13;;;16.60;99.90;;;;;;5094240;28;20043;-81
2021/06/06 06:50:38;;;;;;;18.17;11.63;;;16.60;99.90;;;;;;5112584;28;20503;-80
2021/06/06 06:53:05;;;;;;;19.27;12.90;;;16.60;99.90;;;;;;5094021;28;20584;-80
2021/06/06 06:55:32;;;;;;;19.65;12.25;;;16.70;99.90;;;;;;5112048;28;20099;-80
2021/06/06 06:57:59;;;;;;;21.10;13.32;;;16.60;99.90;;;;;;5094038;28;20054;-81
2021/06/06 07:00:34;;;;;;;18.67;13.27;;;16.50;99.90;;;;;;5112182;28;20555;-80
2021/06/06 07:03:01;;;;;;;21.30;13.77;;;16.60;99.90;;;;;;5112363;28;20060;-81
2021/06/06 07:05:28;;;;;;;23.65;14.85;;;16.70;99.90;;;;;;5112144;28;20051;-81
2021/06/06 07:07:54;;;;;;;23.05;15.02;;;16.70;99.90;;;;;;5112100;28;20543;-80
2021/06/06 07:10:24;;;;;;;25.65;15.68;;;16.60;99.90;;;;;;5094031;28;20035;-80
2021/06/06 07:12:50;;;;;;;;;;;16.50;99.90;;;;;;5093970;28;20582;-80
2021/06/06 07:15:17;;;;;;;24.05;16.40;;;16.50;99.90;;;;;;5111967;28;20022;-80
2021/06/06 07:17:44;;;;;;;23.38;15.50;;;16.70;99.90;;;;;;5093963;28;20043;-80
2021/06/06 07:20:14;;;;;;;22.38;14.52;;;16.60;99.90;;;;;;5093360;28;20048;-80
2021/06/06 07:22:40;;;;;;;;;;;16.50;99.90;;;;;;5087631;28;20035;-80
2021/06/06 07:25:08;;;;;;;20.85;13.15;;;16.50;99.90;;;;;;5093657;28;20447;-80
2021/06/06 07:27:37;;;;;;;21.50;14.13;;;16.40;99.90;;;;;;5111816;28;20510;-80
2021/06/06 07:30:04;;;;;;;23.67;14.20;;;16.50;99.90;;;;;;5111776;28;20040;-80
2021/06/06 07:32:30;;;;;;;22.98;14.25;;;16.40;99.90;;;;;;5112261;28;20040;-80
2021/06/06 07:34:57;;;;;;;23.95;15.25;;;16.20;99.90;;;;;;5110401;28;20085;-80
2021/06/06 07:37:22;;;;;;;24.80;15.38;;;16.20;99.90;;;;;;5111429;28;20044;-80
2021/06/06 07:39:48;;;;;;;23.40;15.18;;;16.20;99.90;;;;;;5093286;28;20418;-81
2021/06/06 07:42:14;;;;;;;23.10;14.40;;;16.30;99.90;;;;;;5092438;28;20044;-81
2021/06/06 07:44:40;;;;;;;25.88;15.80;;;16.40;99.90;;;;;;5096426;28;20050;-80
2021/06/06 07:47:08;;;;;;;21.10;14.23;;;16.50;99.90;;;;;;5113193;28;20039;-81
2021/06/06 07:49:34;;;;;;;23.17;14.93;;;16.70;99.90;;;;;;5084736;28;20032;-80
2021/06/06 07:52:02;;;;;;;23.65;15.13;;;16.90;99.90;;;;;;5114329;28;20490;-80
2021/06/06 07:54:28;;;;;;;22.15;14.07;;;17.10;99.90;;;;;;5113068;28;20048;-80
2021/06/06 07:56:54;;;;;;;22.08;14.27;;;17.10;99.90;;;;;;5113767;28;20045;-80
2021/06/06 07:59:20;;;;;;;23.92;14.57;;;17.10;99.90;;;;;;5114665;28;20027;-80
2021/06/06 08:01:47;;;;;;;29.77;17.38;;;17.00;99.90;;;;;;5113526;28;20038;-80
2021/06/06 08:04:13;;;;;;;27.30;16.90;;;17.00;99.90;;;;;;5113405;28;20502;-80
2021/06/06 08:06:39;;;;;;;27.10;16.80;;;17.10;99.90;;;;;;5096344;28;20084;-79
2021/06/06 08:09:06;;;;;;;27.77;16.55;;;17.10;99.90;;;;;;5113332;28;20062;-80
2021/06/06 08:11:33;;;;;;;27.92;17.63;;;17.10;99.90;;;;;;5115541;28;20044;-80
2021/06/06 08:14:00;;;;;;;26.77;16.55;;;16.80;99.90;;;;;;5113743;28;20498;-80
2021/06/06 08:16:26;;;;;;;31.30;17.33;;;16.90;99.90;;;;;;5113119;28;20406;-80
2021/06/06 08:18:51;;;;;;;28.45;16.95;;;17.20;99.90;;;;;;5096451;28;20118;-80
2021/06/06 08:21:20;;;;;;;25.17;16.13;;;17.30;99.90;;;;;;5113496;28;20031;-81
2021/06/06 08:23:47;;;;;;;26.83;17.05;;;17.50;99.90;;;;;;5115694;28;20070;-80
2021/06/06 08:26:17;;;;;;;22.75;15.07;;;17.70;99.90;;;;;;5114267;28;20043;-80
2021/06/06 08:28:44;;;;;;;23.33;15.57;;;17.60;99.90;;;;;;5114424;28;20131;-80
2021/06/06 08:31:14;;;;;;;23.23;14.73;;;17.70;99.90;;;;;;5113152;28;20427;-80
2021/06/06 08:33:40;;;;;;;25.98;15.13;;;17.60;99.90;;;;;;5114485;28;20406;-80
2021/06/06 08:36:09;;;;;;;24.38;14.63;;;17.60;99.90;;;;;;5113010;28;20039;-80
2021/06/06 08:38:35;;;;;;;21.70;14.13;;;17.80;99.90;;;;;;5113210;28;20052;-80
2021/06/06 08:41:05;;;;;;;21.10;14.02;;;17.70;99.90;;;;;;5112811;28;20041;-80
2021/06/06 08:43:41;;;;;;;20.17;13.60;;;17.70;99.90;;;;;;5114138;28;20036;-80
2021/06/06 08:46:07;;;;;;;20.20;12.38;;;17.70;99.90;;;;;;5117156;28;20044;-79
2021/06/06 08:48:33;;;;;;;22.63;14.38;;;17.40;99.90;;;;;;5117267;28;20138;-80
2021/06/06 08:51:10;;;;;;;20.98;14.50;;;17.20;99.90;;;;;;5119349;28;20032;-80
2021/06/06 08:53:44;;;;;;;20.70;13.35;;;17.10;99.90;;;;;;5117088;28;20113;-78
2021/06/06 08:56:18;;;;;;;21.30;13.60;;;17.10;99.90;;;;;;5118096;28;20495;-80
2021/06/06 08:58:48;;;;;;;23.15;14.80;;;16.90;99.90;;;;;;5116820;28;20453;-79
2021/06/06 09:01:23;;;;;;;23.90;14.35;;;16.60;99.90;;;;;;5116943;28;20039;-81
2021/06/06 09:03:50;;;;;;;28.08;16.13;;;16.70;99.90;;;;;;5116739;28;20047;-81
2021/06/06 09:06:27;;;;;;;23.15;15.27;;;16.70;99.90;;;;;;5116731;28;20514;-80
2021/06/06 09:08:53;;;;;;;22.48;15.20;;;16.90;99.90;;;;;;5116671;28;20042;-80
2021/06/06 09:11:23;;;;;;;23.10;15.13;;;17.00;99.90;;;;;;5116559;28;20102;-81
2021/06/06 09:13:50;;;;;;;25.40;15.40;;;17.00;99.90;;;;;;5116722;28;20043;-81
2021/06/06 09:16:19;;;;;;;25.73;15.18;;;17.10;99.90;;;;;;5116363;28;20105;-80
2021/06/06 09:18:47;;;;;;;22.25;13.98;;;17.20;99.90;;;;;;5099503;28;20043;-80
2021/06/06 09:21:16;;;;;;;22.08;14.40;;;17.20;99.90;;;;;;5117195;28;20055;-81
2021/06/06 09:23:43;;;;;;;24.25;14.63;;;17.30;99.90;;;;;;5099186;28;20081;-81
2021/06/06 09:26:10;;;;;;;21.95;14.45;;;17.30;99.90;;;;;;5117460;28;20069;-81
2021/06/06 09:28:38;;;;;;;21.38;14.05;;;17.30;99.90;;;;;;5116254;28;20414;-80
2021/06/06 09:31:07;;;;;;;28.58;15.82;;;17.40;99.90;;;;;;5117260;28;20082;-81
2021/06/06 09:33:37;;;;;;;25.00;15.10;;;17.20;99.90;;;;;;5115545;28;20048;-80
2021/06/06 09:36:05;;;;;;;25.35;15.52;;;17.20;99.90;;;;;;5116340;28;20048;-81
2021/06/06 09:38:36;;;;;;;26.42;15.95;;;17.10;99.90;;;;;;5115882;28;20096;-81
2021/06/06 09:41:13;;;;;;;24.20;14.93;;;17.10;99.90;;;;;;5115757;28;20057;-80
2021/06/06 09:43:39;;;;;;;28.50;16.90;;;16.90;99.90;;;;;;5117121;28;20047;-80
2021/06/06 09:46:09;;;;;;;24.67;16.40;;;16.70;99.90;;;;;;5116519;28;20088;-81
2021/06/06 09:48:40;;;;;;;27.42;16.75;;;16.70;99.90;;;;;;5116029;28;20133;-80
2021/06/06 09:51:13;;;;;;;29.52;17.20;;;16.70;99.90;;;;;;5115667;28;20047;-80
2021/06/06 09:53:41;;;;;;;27.00;16.08;;;16.60;99.90;;;;;;5115665;28;20035;-81
2021/06/06 09:56:08;;;;;;;28.98;17.88;;;16.60;99.90;;;;;;5115673;28;20098;-79
2021/06/06 09:58:37;;;;;;;26.80;16.52;;;16.50;99.90;;;;;;5097936;28;20036;-78
2021/06/06 10:01:18;;;;;;;27.92;16.73;;;16.60;99.90;;;;;;5115529;28;20034;-79
2021/06/06 10:03:51;;;;;;;28.20;16.30;;;16.60;99.90;;;;;;5118504;28;20048;-80
2021/06/06 10:06:25;;;;;;;28.70;17.52;;;16.60;99.90;;;;;;5119001;28;20488;-80
2021/06/06 10:09:10;;;;;;;31.15;18.38;;;16.60;99.90;;;;;;5115822;28;20040;-80
2021/06/06 10:11:49;;;;;;;35.45;20.13;;;16.70;99.90;;;;;;5115775;28;20482;-80
2021/06/06 10:14:17;;;;;;;32.10;19.95;;;16.60;99.90;;;;;;5115939;28;20495;-80
2021/06/06 10:16:46;;;;;;;37.97;21.58;;;16.70;99.90;;;;;;5115889;28;20039;-79
2021/06/06 10:19:19;;;;;;;39.07;21.60;;;16.60;99.90;;;;;;5115974;28;20043;-80
2021/06/06 10:21:46;;;;;;;37.40;21.13;;;16.60;99.90;;;;;;5117148;28;20266;-80
2021/06/06 10:24:15;;;;;;;41.42;23.33;;;16.60;99.90;;;;;;5115538;28;20036;-80
2021/06/06 10:26:46;;;;;;;39.70;22.23;;;16.60;99.90;;;;;;5115634;28;20093;-80
2021/06/06 10:29:22;;;;;;;43.58;25.50;;;16.70;99.90;;;;;;5115789;28;20039;-80
2021/06/06 10:31:51;;;;;;;43.45;26.65;;;16.70;99.90;;;;;;5116929;28;20483;-79
2021/06/06 10:34:26;;;;;;;48.13;26.70;;;16.60;99.90;;;;;;5115483;28;20079;-79
2021/06/06 10:36:52;;;;;;;48.33;26.80;;;16.50;99.90;;;;;;5117045;28;20082;-79
2021/06/06 10:39:22;;;;;;;45.65;26.85;;;16.60;99.90;;;;;;5098369;28;20040;-80
2021/06/06 10:41:55;;;;;;;54.00;29.48;;;16.50;99.90;;;;;;5116919;28;20080;-79
2021/06/06 10:44:25;;;;;;;57.33;29.45;;;16.40;99.90;;;;;;5116905;28;20444;-80
2021/06/06 10:46:56;;;;;;;53.38;29.73;;;16.20;99.90;;;;;;5115937;28;20040;-79
2021/06/06 10:49:25;;;;;;;57.17;31.52;;;16.30;99.90;;;;;;5116644;28;20104;-80
2021/06/06 10:51:54;;;;;;;61.63;32.22;;;16.20;99.90;;;;;;5115486;28;20069;-80
2021/06/06 10:59:33;;;;;;;67.13;35.78;;;16.30;99.90;;;;;;5075471;28;20389;-81
2021/06/06 11:02:02;;;;;;;68.47;34.83;;;16.30;99.90;;;;;;5057984;28;20127;-80
2021/06/06 11:04:34;;;;;;;61.33;32.20;;;16.40;99.90;;;;;;5057617;28;20500;-79
2021/06/06 11:07:22;;;;;;;68.03;34.50;;;16.40;99.90;;;;;;5075825;28;20036;-80
2021/06/06 11:09:59;;;;;;;64.32;34.85;;;16.30;99.90;;;;;;5073418;28;20041;-80
2021/06/06 11:12:30;;;;;;;67.82;35.47;;;16.30;99.90;;;;;;5075094;28;20098;-80
2021/06/06 11:14:55;;;;;;;66.63;36.17;;;16.30;99.90;;;;;;5074117;28;20048;-80
2021/06/06 11:17:33;;;;;;;62.97;34.47;;;16.40;99.90;;;;;;5076938;28;20076;-82
2021/06/06 11:20:15;;;;;;;65.63;36.13;;;16.50;99.90;;;;;;5074033;28;20517;-80
2021/06/06 11:22:42;;;;;;;73.43;38.55;;;16.50;99.90;;;;;;5074636;28;20495;-80
2021/06/06 11:25:27;;;;;;;67.30;37.35;;;16.40;99.90;;;;;;5075747;28;20100;-79
2021/06/06 11:27:57;;;;;;;65.25;35.03;;;16.20;99.90;;;;;;5074852;28;20452;-79
2021/06/06 11:30:36;;;;;;;70.78;37.92;;;16.20;99.90;;;;;;5074366;28;20040;-80
2021/06/06 11:33:07;;;;;;;66.07;36.50;;;16.40;99.90;;;;;;5074446;28;20102;-80
2021/06/06 11:35:48;;;;;;;65.95;36.17;;;16.40;99.90;;;;;;5075941;28;20042;-79
2021/06/06 11:38:26;;;;;;;64.82;35.03;;;16.70;99.90;;;;;;5074663;28;20496;-80
2021/06/06 11:41:06;;;;;;;56.70;32.78;;;17.00;99.90;;;;;;5075413;28;20039;-80
2021/06/06 11:43:34;;;;;;;59.15;31.67;;;17.40;99.90;;;;;;5075210;28;20045;-80
2021/06/06 11:46:14;;;;;;;53.05;31.70;;;17.60;99.90;;;;;;5073064;28;20045;-80
2021/06/06 11:48:55;;;;;;;55.15;30.70;;;17.60;99.90;;;;;;5073181;28;20045;-79
2021/06/06 11:51:31;;;;;;;51.13;31.10;;;17.60;99.90;;;;;;5074044;28;20040;-80
2021/06/06 11:54:01;;;;;;;47.17;28.02;;;18.10;99.90;;;;;;5072936;28;20056;-79
2021/06/06 11:56:32;;;;;;;45.08;28.33;;;18.50;99.90;;;;;;5072367;28;20044;-80
2021/06/06 11:59:07;;;;;;;40.80;27.08;;;18.60;99.90;;;;;;5068937;28;20049;-80
2021/06/06 12:01:34;;;;;;;35.20;22.85;;;19.00;99.90;;;;;;5053336;28;20433;-80
2021/06/06 12:04:10;;;;;;;33.60;22.95;;;19.20;99.90;;;;;;5053369;28;20063;-80
2021/06/06 12:06:39;;;;;;;35.40;22.73;;;19.20;99.90;;;;;;5053362;28;20061;-80
2021/06/06 12:09:15;;;;;;;30.37;20.83;;;19.10;99.90;;;;;;5069456;28;20132;-80
2021/06/06 12:11:41;;;;;;;34.95;24.13;;;19.20;99.90;;;;;;5069805;28;20128;-80
2021/06/06 12:14:09;;;;;;;34.58;22.83;;;18.80;99.90;;;;;;5069074;28;20073;-80
2021/06/06 12:16:36;;;;;;;32.83;23.15;;;18.80;99.90;;;;;;5048564;28;20049;-81
2021/06/06 12:19:05;;;;;;;32.25;22.60;;;18.80;99.90;;;;;;5050447;28;20138;-81
2021/06/06 12:21:37;;;;;;;33.08;21.75;;;18.90;99.90;;;;;;5065564;28;20064;-81
2021/06/06 12:24:10;;;;;;;34.33;22.98;;;18.60;99.90;;;;;;5050353;28;20048;-81
2021/06/06 12:26:39;;;;;;;37.30;23.80;;;18.60;99.90;;;;;;5050787;28;20028;-80
2021/06/06 12:29:04;;;;;;;38.17;22.85;;;18.70;99.90;;;;;;5065371;28;20315;-81
2021/06/06 12:31:33;;;;;;;35.50;23.00;;;18.70;99.90;;;;;;5050231;28;20049;-80
2021/06/06 12:34:11;;;;;;;36.50;23.08;;;18.60;99.90;;;;;;5050589;28;20044;-80
2021/06/06 12:36:40;;;;;;;33.75;23.50;;;18.50;99.90;;;;;;5049418;28;20091;-80
2021/06/06 12:39:08;;;;;;;33.35;21.67;;;18.60;99.90;;;;;;5043086;28;20063;-80
2021/06/06 12:41:38;;;;;;;33.88;22.65;;;18.80;99.90;;;;;;5050369;28;20049;-80